Time;durP1;ratioP1;P1;durP2;ratioP2;P2;SDS_P1;SDS_P2;PMS_P1;PMS_P2;Temp;Humidity;BMP_temperature;BMP_pressure;BME280_temperature;BME280_humidity;BME280_pressure;Samples;Min_cycle;Max_cycle;Signal;HPM_P1;HPM_P2
2024/03/17 00:02:28;;;;;;;0.70;0.70;;;;;;;;;;6135856;29;20292;-60
2024/03/17 00:05:30;;;;;;;0.50;0.50;;;;;;;;;;6135886;29;20301;-60
2024/03/17 00:08:32;;;;;;;0.60;0.60;;;;;;;;;;6135824;29;20412;-60
2024/03/17 00:11:35;;;;;;;1.47;0.80;;;;;;;;;;6153893;28;20471;-60
2024/03/17 00:14:39;;;;;;;1.60;0.70;;;;;;;;;;6142722;29;20310;-60
2024/03/17 00:17:42;;;;;;;0.70;0.70;;;;;;;;;;6159727;28;20307;-60
2024/03/17 00:20:44;;;;;;;0.70;0.70;;;;;;;;;;6159367;29;20308;-60
2024/03/17 00:23:49;;;;;;;0.70;0.70;;;;;;;;;;6158729;29;20299;-60
2024/03/17 00:26:52;;;;;;;2.10;0.80;;;;;;;;;;6160582;28;20293;-60
2024/03/17 00:29:56;;;;;;;0.80;0.80;;;;;;;;;;6163989;29;20293;-61
2024/03/17 00:32:59;;;;;;;0.60;0.60;;;;;;;;;;6163538;28;20298;-60
2024/03/17 00:36:00;;;;;;;0.73;0.73;;;;;;;;;;6163551;29;20298;-60
2024/03/17 00:39:04;;;;;;;0.97;0.60;;;;;;;;;;6163650;29;20303;-60
2024/03/17 00:42:07;;;;;;;0.70;0.70;;;;;;;;;;6144123;29;20307;-60
2024/03/17 00:45:11;;;;;;;0.70;0.70;;;;;;;;;;6139788;29;20303;-60
2024/03/17 00:48:14;;;;;;;0.70;0.70;;;;;;;;;;6123911;29;20302;-60
2024/03/17 00:51:15;;;;;;;0.80;0.80;;;;;;;;;;6139845;29;20293;-60
2024/03/17 00:54:19;;;;;;;0.80;0.80;;;;;;;;;;6139225;29;20307;-60
2024/03/17 00:57:21;;;;;;;0.70;0.70;;;;;;;;;;6139161;29;20295;-60
2024/03/17 01:00:24;;;;;;;0.80;0.80;;;;;;;;;;6139696;29;20307;-61
2024/03/17 01:03:27;;;;;;;0.70;0.70;;;;;;;;;;6138775;29;20474;-61
2024/03/17 01:06:29;;;;;;;0.80;0.80;;;;;;;;;;6139138;29;20311;-60
2024/03/17 01:09:32;;;;;;;0.77;0.70;;;;;;;;;;6140348;29;20297;-60
2024/03/17 01:12:35;;;;;;;0.80;0.80;;;;;;;;;;6163398;29;20610;-60
2024/03/17 01:15:40;;;;;;;0.67;0.67;;;;;;;;;;6162489;29;20290;-60
2024/03/17 01:18:44;;;;;;;2.83;0.90;;;;;;;;;;6162439;28;20313;-61
2024/03/17 01:21:48;;;;;;;1.13;0.70;;;;;;;;;;6162854;29;20289;-61
2024/03/17 01:24:51;;;;;;;0.70;0.70;;;;;;;;;;6146338;29;20302;-60
2024/03/17 01:27:53;;;;;;;0.80;0.80;;;;;;;;;;6162139;28;20302;-60
2024/03/17 01:30:57;;;;;;;0.77;0.77;;;;;;;;;;6162924;28;20301;-61
2024/03/17 01:34:00;;;;;;;0.70;0.70;;;;;;;;;;6162648;29;20290;-58
2024/03/17 01:37:01;;;;;;;0.70;0.70;;;;;;;;;;6162631;29;20316;-60
2024/03/17 01:40:07;;;;;;;0.60;0.60;;;;;;;;;;6158677;28;20467;-60
2024/03/17 01:43:12;;;;;;;2.27;0.80;;;;;;;;;;6138379;29;20298;-60
2024/03/17 01:46:17;;;;;;;0.83;0.70;;;;;;;;;;6138348;29;20295;-60
2024/03/17 01:49:20;;;;;;;0.70;0.70;;;;;;;;;;6137423;29;20331;-60
2024/03/17 01:52:23;;;;;;;0.70;0.70;;;;;;;;;;6138250;29;20290;-61
2024/03/17 01:55:26;;;;;;;0.80;0.80;;;;;;;;;;6137583;29;20314;-61
2024/03/17 01:58:31;;;;;;;2.13;0.70;;;;;;;;;;6137574;29;20303;-61
2024/03/17 02:01:35;;;;;;;0.70;0.70;;;;;;;;;;6137970;29;20303;-60
2024/03/17 02:04:38;;;;;;;0.93;0.80;;;;;;;;;;6136742;29;20448;-61
2024/03/17 02:07:41;;;;;;;0.70;0.70;;;;;;;;;;6137477;29;20299;-61
2024/03/17 02:10:43;;;;;;;0.70;0.70;;;;;;;;;;6131608;28;20302;-60
2024/03/17 02:13:46;;;;;;;0.73;0.73;;;;;;;;;;6161307;28;20289;-60
2024/03/17 02:16:51;;;;;;;3.20;0.70;;;;;;;;;;6161536;28;20301;-60
2024/03/17 02:19:54;;;;;;;0.83;0.67;;;;;;;;;;6161062;28;20290;-60
2024/03/17 02:22:58;;;;;;;1.37;0.80;;;;;;;;;;6161178;28;20294;-61
2024/03/17 02:26:01;;;;;;;0.77;0.70;;;;;;;;;;6161501;28;20286;-60
2024/03/17 02:29:04;;;;;;;0.60;0.60;;;;;;;;;;6161091;28;20294;-60
2024/03/17 02:32:07;;;;;;;0.60;0.60;;;;;;;;;;6161704;28;20294;-60
2024/03/17 02:35:11;;;;;;;0.60;0.60;;;;;;;;;;6160518;28;20237;-60
2024/03/17 02:39:33;;;;;;;0.63;0.53;;;;;;;;;;6160808;28;20301;-61
2024/03/17 02:41:43;;;;;;;0.70;0.70;;;;;;;;;;6141666;29;20480;-60
2024/03/17 02:44:46;;;;;;;0.70;0.70;;;;;;;;;;6137081;29;20484;-60
2024/03/17 02:47:50;;;;;;;0.80;0.80;;;;;;;;;;6136804;29;20302;-61
2024/03/17 02:50:53;;;;;;;1.03;0.70;;;;;;;;;;6136252;29;20304;-61
2024/03/17 02:53:59;;;;;;;0.70;0.70;;;;;;;;;;6137198;29;20295;-62
2024/03/17 02:57:02;;;;;;;0.73;0.73;;;;;;;;;;6137456;29;20299;-59
2024/03/17 03:00:08;;;;;;;0.60;0.60;;;;;;;;;;6135728;29;20302;-59
2024/03/17 03:03:11;;;;;;;1.10;0.90;;;;;;;;;;6134512;29;20287;-59
2024/03/17 03:06:17;;;;;;;0.70;0.70;;;;;;;;;;6137020;29;20291;-59
2024/03/17 03:09:25;;;;;;;0.77;0.77;;;;;;;;;;6136193;29;20296;-59
2024/03/17 03:12:28;;;;;;;1.40;0.70;;;;;;;;;;6113072;29;20291;-59
2024/03/17 03:15:32;;;;;;;0.93;0.70;;;;;;;;;;6112528;29;20616;-59
2024/03/17 03:18:35;;;;;;;0.63;0.63;;;;;;;;;;6112680;29;20300;-59
2024/03/17 03:21:38;;;;;;;0.70;0.70;;;;;;;;;;6113019;29;20296;-59
2024/03/17 03:24:43;;;;;;;0.70;0.70;;;;;;;;;;6110980;29;20598;-59
2024/03/17 03:27:46;;;;;;;0.70;0.70;;;;;;;;;;6112064;29;20303;-60
2024/03/17 03:30:48;;;;;;;0.97;0.60;;;;;;;;;;6112290;29;20299;-59
2024/03/17 03:33:51;;;;;;;0.93;0.70;;;;;;;;;;6112328;29;20299;-59
2024/03/17 03:36:56;;;;;;;1.50;0.63;;;;;;;;;;6112520;29;20607;-60
2024/03/17 03:40:00;;;;;;;0.70;0.70;;;;;;;;;;6116560;29;20295;-60
2024/03/17 03:43:03;;;;;;;0.77;0.77;;;;;;;;;;6160069;28;20606;-60
2024/03/17 03:46:06;;;;;;;1.70;0.80;;;;;;;;;;6160491;29;20350;-59
2024/03/17 03:49:09;;;;;;;0.60;0.60;;;;;;;;;;6159720;29;20578;-60
2024/03/17 03:52:12;;;;;;;0.77;0.77;;;;;;;;;;6158700;28;20299;-60
2024/03/17 03:55:17;;;;;;;0.70;0.70;;;;;;;;;;6159198;29;20579;-60
2024/03/17 03:58:20;;;;;;;0.70;0.70;;;;;;;;;;6159459;28;20294;-60
2024/03/17 04:01:23;;;;;;;0.60;0.60;;;;;;;;;;6148885;29;20302;-60
2024/03/17 04:04:26;;;;;;;0.77;0.77;;;;;;;;;;6152376;28;20528;-60
2024/03/17 04:07:29;;;;;;;0.90;0.90;;;;;;;;;;6148276;29;20310;-60
2024/03/17 04:10:33;;;;;;;1.63;0.83;;;;;;;;;;6147420;29;20309;-59
2024/03/17 04:13:36;;;;;;;0.80;0.80;;;;;;;;;;6164049;28;20602;-60
2024/03/17 04:16:38;;;;;;;5.00;0.97;;;;;;;;;;6163710;28;20301;-61
2024/03/17 04:19:42;;;;;;;0.70;0.70;;;;;;;;;;6151731;29;20495;-60
2024/03/17 04:22:45;;;;;;;0.70;0.70;;;;;;;;;;6139702;29;20287;-60
2024/03/17 04:25:50;;;;;;;5.20;0.90;;;;;;;;;;6140452;29;20552;-59
2024/03/17 04:28:52;;;;;;;1.70;0.70;;;;;;;;;;6123755;29;20302;-60
2024/03/17 04:31:55;;;;;;;0.80;0.80;;;;;;;;;;6140219;29;20298;-60
2024/03/17 04:34:58;;;;;;;0.77;0.77;;;;;;;;;;6139337;29;20602;-60
2024/03/17 04:38:01;;;;;;;0.60;0.60;;;;;;;;;;6161808;28;20298;-59
2024/03/17 04:41:08;;;;;;;0.60;0.60;;;;;;;;;;6152325;29;20575;-60
2024/03/17 04:44:12;;;;;;;1.53;0.80;;;;;;;;;;6123932;29;20539;-60
2024/03/17 04:47:15;;;;;;;0.70;0.70;;;;;;;;;;6140149;29;20293;-60
2024/03/17 04:50:18;;;;;;;0.60;0.60;;;;;;;;;;6139128;29;20290;-60
2024/03/17 04:53:21;;;;;;;1.43;0.90;;;;;;;;;;6139271;29;20294;-60
2024/03/17 04:56:25;;;;;;;2.17;0.80;;;;;;;;;;6139562;29;20294;-60
2024/03/17 04:59:28;;;;;;;1.50;0.87;;;;;;;;;;6139446;29;20310;-59
2024/03/17 05:02:32;;;;;;;6.27;1.20;;;;;;;;;;6139284;29;20290;-60
2024/03/17 05:05:35;;;;;;;0.80;0.80;;;;;;;;;;6138797;29;20579;-60
2024/03/17 05:08:38;;;;;;;2.53;1.00;;;;;;;;;;6137516;29;20675;-60
2024/03/17 05:11:42;;;;;;;0.60;0.60;;;;;;;;;;6157837;29;20475;-60
2024/03/17 05:14:46;;;;;;;0.80;0.80;;;;;;;;;;6160550;28;20469;-60
2024/03/17 05:17:49;;;;;;;1.13;0.80;;;;;;;;;;6162457;28;20309;-59
2024/03/17 05:20:59;;;;;;;0.80;0.80;;;;;;;;;;6163067;29;20305;-60
2024/03/17 05:24:02;;;;;;;0.80;0.80;;;;;;;;;;6162540;29;20299;-60
2024/03/17 05:27:06;;;;;;;2.17;0.80;;;;;;;;;;6163235;28;20462;-59
2024/03/17 05:30:10;;;;;;;0.90;0.90;;;;;;;;;;6162463;28;20294;-59
2024/03/17 05:33:13;;;;;;;0.80;0.80;;;;;;;;;;6162332;28;20293;-59
2024/03/17 05:36:19;;;;;;;1.57;0.80;;;;;;;;;;6162645;29;20298;-59
2024/03/17 05:39:22;;;;;;;1.30;1.10;;;;;;;;;;6145734;29;20582;-59
2024/03/17 05:42:27;;;;;;;0.80;0.80;;;;;;;;;;6140307;29;20295;-59
2024/03/17 05:45:30;;;;;;;4.10;0.90;;;;;;;;;;6138263;29;20393;-61
2024/03/17 05:48:33;;;;;;;0.93;0.93;;;;;;;;;;6137900;29;20298;-59
2024/03/17 05:51:36;;;;;;;1.23;0.90;;;;;;;;;;6138800;29;20348;-60
2024/03/17 05:54:39;;;;;;;2.30;1.00;;;;;;;;;;6138110;29;20298;-60
2024/03/17 05:57:43;;;;;;;1.07;1.07;;;;;;;;;;6137995;29;20295;-60
2024/03/17 06:00:46;;;;;;;2.67;0.93;;;;;;;;;;6138417;29;20299;-61
2024/03/17 06:03:49;;;;;;;0.90;0.90;;;;;;;;;;6138032;29;20290;-60
2024/03/17 06:06:52;;;;;;;0.90;0.90;;;;;;;;;;6138722;29;20294;-60
2024/03/17 06:09:55;;;;;;;1.00;1.00;;;;;;;;;;6138319;29;20577;-60
2024/03/17 06:12:59;;;;;;;0.63;0.63;;;;;;;;;;6161585;28;20309;-60
2024/03/17 06:16:03;;;;;;;0.77;0.77;;;;;;;;;;6162289;28;20582;-61
2024/03/17 06:19:08;;;;;;;1.00;0.90;;;;;;;;;;6161181;29;20309;-60
2024/03/17 06:22:10;;;;;;;0.77;0.77;;;;;;;;;;6161803;29;20290;-60
2024/03/17 06:25:13;;;;;;;2.33;1.10;;;;;;;;;;6161101;28;20290;-59
2024/03/17 06:28:18;;;;;;;1.00;1.00;;;;;;;;;;6161117;28;20289;-59
2024/03/17 06:31:20;;;;;;;1.53;0.90;;;;;;;;;;6161418;29;20289;-59
2024/03/17 06:34:23;;;;;;;2.37;0.80;;;;;;;;;;6160510;29;20294;-59
2024/03/17 06:37:26;;;;;;;2.33;0.80;;;;;;;;;;6161284;29;20302;-60
2024/03/17 06:40:30;;;;;;;2.33;1.00;;;;;;;;;;6154534;29;20377;-60
2024/03/17 06:43:34;;;;;;;3.33;1.30;;;;;;;;;;6121150;29;20582;-60
2024/03/17 06:46:37;;;;;;;0.90;0.90;;;;;;;;;;6137398;29;20297;-60
2024/03/17 06:49:40;;;;;;;0.97;0.97;;;;;;;;;;6136434;29;20303;-60
2024/03/17 06:52:43;;;;;;;1.07;0.97;;;;;;;;;;6137040;29;20304;-61
2024/03/17 06:55:54;;;;;;;3.50;0.90;;;;;;;;;;6137070;29;20487;-60
2024/03/17 06:58:58;;;;;;;1.70;1.00;;;;;;;;;;6136310;29;20301;-60
2024/03/17 07:02:01;;;;;;;0.93;0.93;;;;;;;;;;6136701;29;20306;-60
2024/03/17 07:05:04;;;;;;;2.33;0.90;;;;;;;;;;6135292;29;20467;-61
2024/03/17 07:08:07;;;;;;;1.43;1.03;;;;;;;;;;6136150;29;20295;-59
2024/03/17 07:11:10;;;;;;;3.28;1.30;;;;;;;;;;6149413;28;20762;-61
2024/03/17 07:14:14;;;;;;;2.50;0.83;;;;;;;;;;6160130;28;20291;-60
2024/03/17 07:17:17;;;;;;;2.17;1.00;;;;;;;;;;6160475;28;20299;-61
2024/03/17 07:20:19;;;;;;;1.03;1.03;;;;;;;;;;6160258;28;20292;-59
2024/03/17 07:23:22;;;;;;;1.27;1.10;;;;;;;;;;6159806;28;20290;-59
2024/03/17 07:26:25;;;;;;;1.00;1.00;;;;;;;;;;6160692;28;20308;-61
2024/03/17 07:29:29;;;;;;;1.83;0.80;;;;;;;;;;6159810;28;20282;-60
2024/03/17 07:32:33;;;;;;;1.10;0.90;;;;;;;;;;6160029;28;20599;-60
2024/03/17 07:35:36;;;;;;;1.33;1.10;;;;;;;;;;6159500;28;20290;-61
2024/03/17 07:38:39;;;;;;;1.73;1.20;;;;;;;;;;6159038;29;20322;-60
2024/03/17 07:41:42;;;;;;;2.83;1.10;;;;;;;;;;6144125;29;20296;-59
2024/03/17 07:44:47;;;;;;;2.43;1.10;;;;;;;;;;6135993;29;20299;-60
2024/03/17 07:47:51;;;;;;;0.97;0.97;;;;;;;;;;6135822;29;20326;-59
2024/03/17 07:50:56;;;;;;;0.90;0.90;;;;;;;;;;6135969;29;20283;-60
2024/03/17 07:53:58;;;;;;;2.80;1.03;;;;;;;;;;6135987;29;20319;-61
2024/03/17 07:57:01;;;;;;;3.97;0.90;;;;;;;;;;6136073;29;20296;-60
2024/03/17 08:00:15;;;;;;;1.77;0.90;;;;;;;;;;6135810;29;20301;-61
2024/03/17 08:03:18;;;;;;;1.70;1.23;;;;;;;;;;6135444;29;20531;-59
2024/03/17 08:06:21;;;;;;;1.00;1.00;;;;;;;;;;6136134;29;20321;-58
2024/03/17 08:09:24;;;;;;;3.77;1.07;;;;;;;;;;6135444;29;20295;-61
2024/03/17 08:12:29;;;;;;;2.40;0.90;;;;;;;;;;6159877;29;20432;-59
2024/03/17 08:15:34;;;;;;;1.50;1.00;;;;;;;;;;6159554;29;20286;-59
2024/03/17 08:18:37;;;;;;;1.80;0.80;;;;;;;;;;6159032;28;20294;-59
2024/03/17 08:21:39;;;;;;;1.27;1.20;;;;;;;;;;6160150;29;20286;-59
2024/03/17 08:24:42;;;;;;;0.70;0.70;;;;;;;;;;6159412;28;20298;-60
2024/03/17 08:27:46;;;;;;;1.00;1.00;;;;;;;;;;6159072;28;20298;-60
2024/03/17 08:30:54;;;;;;;0.70;0.70;;;;;;;;;;6159525;29;20290;-60
2024/03/17 08:33:57;;;;;;;1.97;0.90;;;;;;;;;;6158755;28;20296;-60
2024/03/17 08:36:59;;;;;;;0.80;0.80;;;;;;;;;;6159326;29;20302;-60
2024/03/17 08:40:06;;;;;;;0.80;0.80;;;;;;;;;;6156292;29;20242;-60
2024/03/17 08:43:08;;;;;;;4.43;0.97;;;;;;;;;;6135195;29;20300;-59
2024/03/17 08:46:13;;;;;;;1.00;0.90;;;;;;;;;;6135778;29;20296;-59
2024/03/17 08:49:16;;;;;;;5.10;0.80;;;;;;;;;;6136600;29;20375;-59
2024/03/17 08:52:20;;;;;;;0.87;0.83;;;;;;;;;;6140015;29;20288;-59
2024/03/17 08:55:23;;;;;;;0.90;0.90;;;;;;;;;;6139247;29;20579;-60
2024/03/17 08:58:27;;;;;;;2.77;1.10;;;;;;;;;;6139155;29;20298;-59
2024/03/17 09:01:32;;;;;;;1.23;0.80;;;;;;;;;;6139603;29;20294;-61
2024/03/17 09:04:35;;;;;;;4.47;0.90;;;;;;;;;;6138084;29;20299;-61
2024/03/17 09:07:37;;;;;;;2.30;0.80;;;;;;;;;;6139497;29;20287;-60
2024/03/17 09:10:41;;;;;;;1.00;1.00;;;;;;;;;;6148250;28;20293;-60
2024/03/17 09:13:43;;;;;;;0.90;0.90;;;;;;;;;;6162489;28;20290;-60
2024/03/17 09:16:48;;;;;;;0.70;0.70;;;;;;;;;;6163227;28;20294;-61
2024/03/17 09:19:50;;;;;;;4.07;0.87;;;;;;;;;;6162561;28;20540;-60
2024/03/17 09:22:53;;;;;;;3.70;1.13;;;;;;;;;;6162385;28;20594;-60
2024/03/17 09:26:00;;;;;;;1.40;0.80;;;;;;;;;;6162947;28;20488;-60
2024/03/17 09:29:03;;;;;;;0.70;0.70;;;;;;;;;;6162456;28;20302;-60
2024/03/17 09:32:11;;;;;;;3.03;0.80;;;;;;;;;;6163104;28;20286;-62
2024/03/17 09:35:14;;;;;;;0.90;0.90;;;;;;;;;;6162627;28;20301;-60
2024/03/17 09:38:17;;;;;;;1.27;1.00;;;;;;;;;;6162445;28;20245;-60
2024/03/17 09:41:24;;;;;;;1.80;0.83;;;;;;;;;;6150124;29;20554;-60
2024/03/17 09:44:28;;;;;;;2.90;0.87;;;;;;;;;;6138386;29;20298;-60
2024/03/17 09:47:32;;;;;;;2.73;0.90;;;;;;;;;;6138999;29;20290;-60
2024/03/17 09:50:35;;;;;;;1.57;0.87;;;;;;;;;;6138190;29;20299;-61
2024/03/17 09:53:38;;;;;;;1.00;0.80;;;;;;;;;;6122284;29;20302;-59
2024/03/17 09:56:41;;;;;;;1.67;0.70;;;;;;;;;;6138083;29;20295;-60
2024/03/17 09:59:45;;;;;;;0.90;0.90;;;;;;;;;;6137459;29;20436;-58
2024/03/17 10:02:49;;;;;;;0.90;0.90;;;;;;;;;;6137582;29;20295;-60
2024/03/17 10:06:00;;;;;;;2.53;0.77;;;;;;;;;;6136697;29;20494;-61
2024/03/17 10:09:09;;;;;;;2.07;0.73;;;;;;;;;;6137335;29;20315;-61
2024/03/17 10:12:28;;;;;;;1.40;0.73;;;;;;;;;;6160161;29;20469;-60
2024/03/17 10:15:31;;;;;;;0.80;0.80;;;;;;;;;;6161035;29;20497;-61
2024/03/17 10:18:35;;;;;;;2.63;0.90;;;;;;;;;;6160759;28;20310;-59
2024/03/17 10:21:39;;;;;;;0.77;0.77;;;;;;;;;;6161686;29;20309;-60
2024/03/17 10:24:42;;;;;;;1.77;0.80;;;;;;;;;;6161236;28;20302;-60
2024/03/17 10:27:45;;;;;;;0.70;0.70;;;;;;;;;;6176868;28;20293;-60
2024/03/17 10:30:58;;;;;;;1.70;0.90;;;;;;;;;;6161674;29;20481;-61
2024/03/17 10:34:05;;;;;;;0.80;0.80;;;;;;;;;;6160436;29;20309;-59
2024/03/17 10:37:11;;;;;;;0.70;0.70;;;;;;;;;;6160967;29;20547;-59
2024/03/17 10:40:14;;;;;;;0.83;0.83;;;;;;;;;;6156212;29;20303;-59
2024/03/17 10:43:18;;;;;;;1.00;0.90;;;;;;;;;;6137126;29;20582;-61
2024/03/17 10:46:21;;;;;;;0.90;0.90;;;;;;;;;;6135975;29;20694;-59
2024/03/17 10:49:30;;;;;;;0.70;0.70;;;;;;;;;;6136575;29;20297;-59
2024/03/17 10:52:35;;;;;;;1.17;0.90;;;;;;;;;;6136858;29;20302;-60
2024/03/17 10:55:44;;;;;;;2.67;0.90;;;;;;;;;;6120760;29;20295;-62
2024/03/17 10:58:52;;;;;;;0.80;0.80;;;;;;;;;;6136518;29;20575;-60
2024/03/17 11:01:56;;;;;;;4.47;0.70;;;;;;;;;;6136631;29;20303;-59
2024/03/17 11:05:02;;;;;;;0.80;0.80;;;;;;;;;;6136154;29;20305;-60
2024/03/17 11:08:07;;;;;;;0.80;0.80;;;;;;;;;;6136375;29;20313;-59
2024/03/17 11:11:10;;;;;;;5.67;0.80;;;;;;;;;;6150476;28;20404;-60
2024/03/17 11:14:23;;;;;;;0.90;0.90;;;;;;;;;;6160345;28;20286;-59
2024/03/17 11:17:26;;;;;;;0.60;0.60;;;;;;;;;;6160259;28;20289;-60
2024/03/17 11:20:30;;;;;;;0.70;0.70;;;;;;;;;;6159855;28;20314;-60
2024/03/17 11:23:33;;;;;;;0.93;0.70;;;;;;;;;;6159786;28;20290;-60
2024/03/17 11:26:36;;;;;;;0.93;0.93;;;;;;;;;;6160102;28;20286;-59
2024/03/17 11:29:39;;;;;;;0.60;0.60;;;;;;;;;;6159833;29;20316;-60
2024/03/17 11:32:42;;;;;;;1.80;0.80;;;;;;;;;;6159990;28;20290;-60
2024/03/17 11:35:46;;;;;;;0.93;0.93;;;;;;;;;;6160024;28;20385;-59
2024/03/17 11:38:51;;;;;;;1.80;0.70;;;;;;;;;;6159343;29;20302;-60
2024/03/17 11:41:54;;;;;;;0.80;0.80;;;;;;;;;;6142594;29;20580;-59
2024/03/17 11:45:07;;;;;;;0.90;0.90;;;;;;;;;;6135667;29;20360;-59
2024/03/17 11:48:13;;;;;;;4.17;0.80;;;;;;;;;;6135866;29;20328;-60
2024/03/17 11:51:17;;;;;;;2.70;0.97;;;;;;;;;;6136217;29;20583;-60
2024/03/17 11:54:21;;;;;;;5.50;0.80;;;;;;;;;;6135794;29;20298;-60
2024/03/17 11:57:24;;;;;;;1.70;1.00;;;;;;;;;;6136185;29;20304;-60
2024/03/17 12:00:27;;;;;;;0.70;0.70;;;;;;;;;;6135134;29;20298;-59
2024/03/17 12:03:29;;;;;;;1.00;1.00;;;;;;;;;;6135399;29;20307;-59
2024/03/17 12:06:33;;;;;;;0.90;0.90;;;;;;;;;;6136022;29;20301;-61
2024/03/17 12:09:35;;;;;;;3.05;0.90;;;;;;;;;;6135333;29;20791;-59
2024/03/17 12:12:38;;;;;;;1.57;1.13;;;;;;;;;;6159793;29;20298;-60
2024/03/17 12:15:40;;;;;;;0.73;0.70;;;;;;;;;;6158701;28;20301;-61
2024/03/17 12:18:45;;;;;;;0.60;0.60;;;;;;;;;;6158834;29;20329;-60
2024/03/17 12:21:49;;;;;;;1.30;0.93;;;;;;;;;;6159511;29;20294;-59
2024/03/17 12:24:53;;;;;;;0.73;0.60;;;;;;;;;;6162697;28;20305;-59
2024/03/17 12:27:55;;;;;;;4.63;0.77;;;;;;;;;;6161879;28;20493;-59
2024/03/17 12:30:59;;;;;;;0.83;0.83;;;;;;;;;;6163407;29;20554;-60
2024/03/17 12:34:02;;;;;;;0.90;0.77;;;;;;;;;;6163081;29;20324;-60
2024/03/17 12:37:06;;;;;;;0.80;0.80;;;;;;;;;;6163564;29;20298;-60
2024/03/17 12:40:18;;;;;;;0.87;0.87;;;;;;;;;;6159786;28;20597;-60
2024/03/17 12:43:21;;;;;;;2.27;0.63;;;;;;;;;;6139171;29;20482;-59
2024/03/17 12:46:22;;;;;;;0.80;0.80;;;;;;;;;;6139798;29;20323;-60
2024/03/17 12:49:26;;;;;;;2.93;0.80;;;;;;;;;;6139420;29;20304;-60
2024/03/17 12:52:31;;;;;;;1.40;0.82;;;;;;;;;;6138344;29;20526;-61
2024/03/17 13:02:14;;;;;;;1.93;0.80;;;;;;;;;;6139002;29;20345;-60
2024/03/17 13:05:18;;;;;;;0.80;0.80;;;;;;;;;;6138539;29;20310;-59
2024/03/17 13:08:22;;;;;;;0.80;0.80;;;;;;;;;;6138805;29;20290;-60
2024/03/17 13:11:25;;;;;;;1.17;0.70;;;;;;;;;;6155157;28;20289;-60
2024/03/17 13:14:29;;;;;;;0.60;0.60;;;;;;;;;;6162558;28;20313;-60
2024/03/17 13:17:33;;;;;;;0.60;0.60;;;;;;;;;;6162616;28;20288;-59
2024/03/17 13:20:36;;;;;;;0.90;0.90;;;;;;;;;;6162007;28;20570;-58
2024/03/17 13:23:41;;;;;;;0.70;0.70;;;;;;;;;;6160909;29;20606;-60
2024/03/17 13:26:44;;;;;;;1.27;0.80;;;;;;;;;;6163157;29;20302;-59
2024/03/17 13:29:49;;;;;;;1.57;0.70;;;;;;;;;;6162538;29;20294;-59
2024/03/17 13:32:55;;;;;;;0.70;0.70;;;;;;;;;;6162030;28;20366;-59
2024/03/17 13:35:58;;;;;;;0.93;0.90;;;;;;;;;;6161299;28;20294;-58
2024/03/17 13:39:09;;;;;;;2.83;0.87;;;;;;;;;;6161676;28;20303;-59
2024/03/17 13:42:12;;;;;;;2.40;0.80;;;;;;;;;;6142549;29;20301;-60
2024/03/17 13:45:15;;;;;;;0.80;0.80;;;;;;;;;;6138010;29;20293;-59
2024/03/17 13:48:18;;;;;;;1.80;1.00;;;;;;;;;;6137976;29;20292;-59
2024/03/17 13:51:20;;;;;;;0.80;0.80;;;;;;;;;;6138369;29;20289;-59
2024/03/17 13:54:25;;;;;;;2.20;0.80;;;;;;;;;;6137677;29;20289;-59
2024/03/17 13:57:28;;;;;;;0.90;0.90;;;;;;;;;;6138065;29;20294;-59
2024/03/17 14:00:35;;;;;;;3.50;0.80;;;;;;;;;;6137504;29;20303;-60
2024/03/17 14:03:38;;;;;;;2.17;0.70;;;;;;;;;;6137309;29;20295;-59
2024/03/17 14:06:41;;;;;;;1.00;1.00;;;;;;;;;;6137924;29;20296;-60
2024/03/17 14:09:46;;;;;;;1.00;0.90;;;;;;;;;;6140000;29;20301;-60
2024/03/17 14:12:49;;;;;;;1.13;0.80;;;;;;;;;;6161371;28;20298;-60
2024/03/17 14:15:56;;;;;;;4.90;0.90;;;;;;;;;;6161675;29;20313;-61
2024/03/17 14:18:59;;;;;;;1.67;0.80;;;;;;;;;;6160969;29;20333;-60
2024/03/17 14:22:02;;;;;;;0.80;0.80;;;;;;;;;;6160987;28;20294;-61
2024/03/17 14:25:09;;;;;;;2.00;0.80;;;;;;;;;;6160697;29;20304;-60
2024/03/17 14:28:11;;;;;;;0.90;0.80;;;;;;;;;;6161060;28;20281;-61
2024/03/17 14:31:14;;;;;;;4.47;0.77;;;;;;;;;;6161305;29;20293;-59
2024/03/17 14:34:17;;;;;;;0.80;0.80;;;;;;;;;;6160340;28;20492;-60
2024/03/17 14:37:22;;;;;;;3.10;0.80;;;;;;;;;;6160908;29;20294;-59
2024/03/17 14:40:28;;;;;;;0.90;0.90;;;;;;;;;;6155159;29;20301;-59
2024/03/17 14:43:31;;;;;;;0.77;0.77;;;;;;;;;;6136732;29;20303;-59
2024/03/17 14:46:34;;;;;;;0.70;0.70;;;;;;;;;;6137639;29;20301;-59
2024/03/17 14:49:36;;;;;;;0.77;0.77;;;;;;;;;;6136379;29;20307;-60
2024/03/17 14:52:40;;;;;;;1.80;1.00;;;;;;;;;;6136468;29;20299;-60
2024/03/17 14:55:45;;;;;;;3.30;0.80;;;;;;;;;;6136927;29;20289;-60
2024/03/17 14:58:48;;;;;;;0.73;0.73;;;;;;;;;;6136134;29;20333;-59
2024/03/17 15:01:51;;;;;;;1.10;1.00;;;;;;;;;;6136672;29;20416;-60
2024/03/17 15:04:54;;;;;;;2.13;1.10;;;;;;;;;;6136166;29;20291;-60
2024/03/17 15:07:57;;;;;;;1.10;0.90;;;;;;;;;;6136288;29;20463;-60
2024/03/17 15:11:01;;;;;;;1.00;0.87;;;;;;;;;;6149329;28;20289;-60
2024/03/17 15:14:10;;;;;;;1.67;0.80;;;;;;;;;;6159760;28;20286;-59
2024/03/17 15:17:15;;;;;;;0.80;0.80;;;;;;;;;;6160476;28;20295;-60
2024/03/17 15:20:19;;;;;;;0.90;0.90;;;;;;;;;;6159730;28;20282;-60
2024/03/17 15:23:21;;;;;;;0.77;0.77;;;;;;;;;;6159589;28;20255;-60
2024/03/17 15:26:26;;;;;;;1.37;0.80;;;;;;;;;;6160236;28;20286;-59
2024/03/17 15:29:29;;;;;;;1.03;1.00;;;;;;;;;;6159787;28;20291;-59
2024/03/17 15:32:32;;;;;;;1.07;0.60;;;;;;;;;;6160376;28;20381;-60
2024/03/17 15:35:35;;;;;;;3.57;0.80;;;;;;;;;;6159696;28;20305;-60
2024/03/17 15:38:39;;;;;;;4.97;0.93;;;;;;;;;;6159219;29;20404;-60
2024/03/17 15:41:43;;;;;;;0.87;0.80;;;;;;;;;;6144216;29;20386;-60
2024/03/17 15:44:47;;;;;;;3.50;0.90;;;;;;;;;;6136027;29;20299;-60
2024/03/17 15:47:51;;;;;;;0.90;0.87;;;;;;;;;;6135901;29;20524;-60
2024/03/17 15:50:56;;;;;;;0.80;0.80;;;;;;;;;;6136540;29;20294;-60
2024/03/17 15:53:58;;;;;;;3.95;0.90;;;;;;;;;;6136453;29;20299;-61
2024/03/17 15:57:03;;;;;;;2.00;0.90;;;;;;;;;;6137076;29;20563;-62
2024/03/17 16:00:08;;;;;;;1.00;1.00;;;;;;;;;;6140811;29;20294;-59
2024/03/17 16:03:17;;;;;;;1.30;0.83;;;;;;;;;;6141208;29;20472;-60
2024/03/17 16:06:21;;;;;;;2.53;0.90;;;;;;;;;;6146171;29;20286;-60
2024/03/17 16:09:25;;;;;;;0.90;0.90;;;;;;;;;;6142068;29;20299;-60
2024/03/17 16:12:30;;;;;;;1.70;1.00;;;;;;;;;;6156449;29;20286;-59
2024/03/17 16:15:36;;;;;;;0.80;0.80;;;;;;;;;;6143697;29;20293;-58
2024/03/17 16:18:40;;;;;;;0.60;0.60;;;;;;;;;;6144142;29;20315;-60
2024/03/17 16:21:44;;;;;;;1.57;0.83;;;;;;;;;;6141029;29;20323;-60
2024/03/17 16:24:48;;;;;;;1.40;0.90;;;;;;;;;;6142177;28;20287;-61
2024/03/17 16:27:54;;;;;;;2.40;0.70;;;;;;;;;;6142936;29;20299;-62
2024/03/17 16:30:58;;;;;;;0.97;0.97;;;;;;;;;;6142008;29;20299;-61
2024/03/17 16:34:02;;;;;;;0.83;0.83;;;;;;;;;;6126116;28;20294;-60
2024/03/17 16:37:06;;;;;;;1.37;1.10;;;;;;;;;;6140389;28;20381;-60
2024/03/17 16:40:09;;;;;;;0.87;0.87;;;;;;;;;;6143744;28;20294;-60
2024/03/17 16:43:22;;;;;;;0.80;0.80;;;;;;;;;;6164524;28;20302;-61
2024/03/17 16:46:44;;;;;;;1.80;0.90;;;;;;;;;;6163687;28;20290;-60
2024/03/17 16:49:47;;;;;;;1.37;1.00;;;;;;;;;;6162869;28;20296;-61
2024/03/17 16:52:50;;;;;;;0.80;0.80;;;;;;;;;;6163794;28;20301;-59
2024/03/17 16:55:53;;;;;;;0.73;0.73;;;;;;;;;;6163406;28;20298;-62
2024/03/17 16:58:57;;;;;;;1.13;0.90;;;;;;;;;;6163967;28;20449;-60
2024/03/17 17:02:01;;;;;;;1.00;1.00;;;;;;;;;;6162835;28;20497;-60
2024/03/17 17:05:06;;;;;;;0.73;0.73;;;;;;;;;;6163337;28;20295;-59
2024/03/17 17:08:09;;;;;;;3.00;0.80;;;;;;;;;;6163174;28;20290;-60
2024/03/17 17:11:16;;;;;;;0.93;0.93;;;;;;;;;;6146957;28;20587;-59
2024/03/17 17:14:22;;;;;;;5.00;0.87;;;;;;;;;;6139732;29;20294;-61
2024/03/17 17:17:25;;;;;;;1.20;1.20;;;;;;;;;;6139168;29;20303;-60
2024/03/17 17:20:33;;;;;;;0.80;0.80;;;;;;;;;;6138638;29;20295;-60
2024/03/17 17:23:36;;;;;;;2.93;1.13;;;;;;;;;;6139784;29;20302;-60
2024/03/17 17:26:39;;;;;;;1.30;0.90;;;;;;;;;;6138838;29;20302;-59
2024/03/17 17:29:43;;;;;;;1.87;0.87;;;;;;;;;;6139094;29;20295;-59
2024/03/17 17:32:47;;;;;;;1.40;1.00;;;;;;;;;;6138548;29;20590;-60
2024/03/17 17:35:50;;;;;;;0.90;0.90;;;;;;;;;;6138535;29;20350;-60
2024/03/17 17:38:54;;;;;;;0.80;0.80;;;;;;;;;;6091926;29;20295;-61
2024/03/17 17:41:58;;;;;;;1.33;1.23;;;;;;;;;;6108090;29;20303;-59
2024/03/17 17:45:02;;;;;;;1.07;1.07;;;;;;;;;;6114637;29;20299;-60
2024/03/17 17:48:06;;;;;;;0.80;0.80;;;;;;;;;;6114946;29;20702;-59
2024/03/17 17:51:11;;;;;;;0.80;0.80;;;;;;;;;;6114596;29;20492;-60
2024/03/17 17:54:14;;;;;;;1.10;1.10;;;;;;;;;;6114547;29;20299;-60
2024/03/17 17:57:17;;;;;;;0.90;0.90;;;;;;;;;;6114676;29;20384;-61
2024/03/17 18:00:22;;;;;;;0.90;0.90;;;;;;;;;;6114366;29;20298;-60
2024/03/17 18:03:25;;;;;;;0.90;0.90;;;;;;;;;;6114597;29;20295;-60
2024/03/17 18:06:28;;;;;;;0.73;0.73;;;;;;;;;;6114339;29;20343;-61
2024/03/17 18:09:32;;;;;;;1.07;1.03;;;;;;;;;;6101069;29;20300;-59
2024/03/17 18:12:35;;;;;;;1.27;1.00;;;;;;;;;;6113985;29;20302;-60
2024/03/17 18:15:39;;;;;;;1.00;1.00;;;;;;;;;;6113977;29;20306;-58
2024/03/17 18:18:42;;;;;;;1.13;1.10;;;;;;;;;;6114326;29;20485;-61
2024/03/17 18:21:45;;;;;;;1.10;1.10;;;;;;;;;;6113071;29;20299;-60
2024/03/17 18:24:48;;;;;;;0.83;0.83;;;;;;;;;;6113876;29;20299;-61
2024/03/17 18:27:50;;;;;;;0.93;0.93;;;;;;;;;;6114385;29;20295;-60
2024/03/17 18:30:55;;;;;;;0.93;0.93;;;;;;;;;;6113956;29;20299;-60